DLH648 UACC-EDDF
Flight info
| Callsign | DLH648 |
|---|---|
| Flight time | N/A |
| Altitude | 36000 |
| Route | VETUB7G VETUB P574 OGANU/K0883F380 N55 MASAV N161 GASBI/N0481F380 N161 LEYLA T916 MATAL M11 REBLO UM11 CRM UL746 ODERO DCT OPT/N0474F400 DCT SOKRU DCT ARSIN DCT LNZ DCT SUBEN DCT AKINI T161 DEBHI DEBHI1A |
| Aircraft | A346/H-SDE2E3FGHIJ3J4J5M1RWXY/LB1D1 |
Departure
| Time | 2026-05-04 20:18 |
|---|---|
| Airport | Nursultan Nazarbayev International Airport (UACC) |
Arrival
| Time | N/A |
|---|---|
| Airport | Frankfurt Main Airport (EDDF) |
| Time | Latitude | Longitude | Altitude | Speed | Heading |
|---|---|---|---|---|---|
| 2026-05-04 19:53 | 51.02605 | 71.46088 | 1176 ft | 0 kts | 359° |
| 2026-05-04 20:07 | 51.02598 | 71.46088 | 1176 ft | 2 kts | 359° |
| 2026-05-04 20:07 | 51.02583 | 71.46089 | 1176 ft | 2 kts | 359° |
| 2026-05-04 20:08 | 51.02582 | 71.46089 | 1176 ft | 0 kts | 359° |
| 2026-05-04 20:09 | 51.02575 | 71.46089 | 1176 ft | 2 kts | 359° |
| 2026-05-04 20:09 | 51.02560 | 71.46090 | 1176 ft | 2 kts | 359° |
| 2026-05-04 20:09 | 51.02545 | 71.46091 | 1176 ft | 2 kts | 359° |
| 2026-05-04 20:10 | 51.02531 | 71.46091 | 1176 ft | 2 kts | 359° |
| 2026-05-04 20:10 | 51.02516 | 71.46092 | 1176 ft | 2 kts | 359° |
| 2026-05-04 20:10 | 51.02501 | 71.46093 | 1176 ft | 2 kts | 358° |
| 2026-05-04 20:10 | 51.02486 | 71.46094 | 1176 ft | 2 kts | 357° |
| 2026-05-04 20:11 | 51.02470 | 71.46095 | 1176 ft | 2 kts | 356° |
| 2026-05-04 20:11 | 51.02455 | 71.46098 | 1176 ft | 2 kts | 345° |
| 2026-05-04 20:11 | 51.02443 | 71.46107 | 1176 ft | 1 kts | 325° |
| 2026-05-04 20:11 | 51.02439 | 71.46111 | 1176 ft | 0 kts | 324° |
| 2026-05-04 20:13 | 51.02468 | 71.46092 | 1176 ft | 11 kts | 354° |
| 2026-05-04 20:14 | 51.02539 | 71.46163 | 1176 ft | 15 kts | 47° |
| 2026-05-04 20:14 | 51.02616 | 71.46329 | 1178 ft | 18 kts | 70° |
| 2026-05-04 20:14 | 51.02664 | 71.46501 | 1179 ft | 15 kts | 46° |
| 2026-05-04 20:14 | 51.02685 | 71.46643 | 1179 ft | 14 kts | 115° |
| 2026-05-04 20:15 | 51.02677 | 71.46790 | 1177 ft | 15 kts | 62° |
| 2026-05-04 20:15 | 51.02757 | 71.46939 | 1177 ft | 21 kts | 45° |
| 2026-05-04 20:15 | 51.02881 | 71.47135 | 1176 ft | 26 kts | 45° |
| 2026-05-04 20:15 | 51.03027 | 71.47366 | 1173 ft | 32 kts | 45° |
| 2026-05-04 20:16 | 51.03201 | 71.47638 | 1173 ft | 36 kts | 45° |
| 2026-05-04 20:16 | 51.03369 | 71.47901 | 1173 ft | 26 kts | 44° |
| 2026-05-04 20:16 | 51.03424 | 71.48094 | 1173 ft | 5 kts | 91° |
| 2026-05-04 20:16 | 51.03424 | 71.48105 | 1173 ft | 2 kts | 91° |
| 2026-05-04 20:17 | 51.03419 | 71.48223 | 1173 ft | 16 kts | 103° |
| 2026-05-04 20:17 | 51.03362 | 71.48316 | 1173 ft | 9 kts | 187° |
| 2026-05-04 20:17 | 51.03315 | 71.48271 | 1173 ft | 0 kts | 223° |
| 2026-05-04 20:17 | 51.03247 | 71.48171 | 1173 ft | 42 kts | 224° |
| 2026-05-04 20:18 | 51.02877 | 71.47594 | 1173 ft | 104 kts | 224° |
| 2026-05-04 20:18 | 51.02226 | 71.46577 | 1177 ft | 154 kts | 225° |
| 2026-05-04 20:18 | 51.01377 | 71.45250 | 1326 ft | 181 kts | 224° |
| 2026-05-04 20:18 | 51.00505 | 71.43865 | 1853 ft | 178 kts | 226° |
| 2026-05-04 20:19 | 50.99641 | 71.42473 | 2348 ft | 180 kts | 225° |
| 2026-05-04 20:19 | 50.98763 | 71.41057 | 2864 ft | 181 kts | 223° |
| 2026-05-04 20:19 | 50.97852 | 71.39603 | 3140 ft | 191 kts | 222° |
| 2026-05-04 20:19 | 50.96876 | 71.38064 | 3389 ft | 204 kts | 222° |
| 2026-05-04 20:20 | 50.95985 | 71.36225 | 3598 ft | 225 kts | 248° |
| 2026-05-04 20:20 | 50.95823 | 71.33689 | 3853 ft | 249 kts | 279° |
| 2026-05-04 20:20 | 50.96450 | 71.31001 | 4230 ft | 265 kts | 289° |
| 2026-05-04 20:20 | 50.97147 | 71.28291 | 4933 ft | 267 kts | 289° |
| 2026-05-04 20:21 | 50.97798 | 71.25595 | 5718 ft | 264 kts | 284° |
| 2026-05-04 20:21 | 50.97968 | 71.22746 | 6455 ft | 261 kts | 263° |
| 2026-05-04 20:21 | 50.97359 | 71.17124 | 7880 ft | 264 kts | 259° |
| 2026-05-04 20:22 | 50.97033 | 71.14270 | 8542 ft | 267 kts | 259° |
| 2026-05-04 20:22 | 50.96720 | 71.11356 | 9214 ft | 270 kts | 260° |
| 2026-05-04 20:22 | 50.96418 | 71.08424 | 9874 ft | 273 kts | 261° |
| 2026-05-04 20:22 | 50.96122 | 71.05463 | 10541 ft | 275 kts | 261° |
| 2026-05-04 20:23 | 50.95831 | 71.02504 | 11209 ft | 278 kts | 261° |
| 2026-05-04 20:23 | 50.95532 | 70.99465 | 11575 ft | 291 kts | 261° |
| 2026-05-04 20:23 | 50.95211 | 70.96197 | 11847 ft | 307 kts | 261° |
| 2026-05-04 20:23 | 50.94878 | 70.92802 | 12118 ft | 323 kts | 261° |
| 2026-05-04 20:24 | 50.94525 | 70.89217 | 12397 ft | 338 kts | 261° |
| 2026-05-04 20:24 | 50.94153 | 70.85435 | 12664 ft | 354 kts | 261° |
| 2026-05-04 20:24 | 50.93764 | 70.81538 | 12986 ft | 366 kts | 259° |
| 2026-05-04 20:24 | 50.93091 | 70.77624 | 13562 ft | 371 kts | 250° |
| 2026-05-04 20:25 | 50.92009 | 70.73950 | 14252 ft | 373 kts | 241° |
| 2026-05-04 20:25 | 50.90590 | 70.70524 | 14905 ft | 376 kts | 237° |
| 2026-05-04 20:25 | 50.89086 | 70.67144 | 15528 ft | 379 kts | 236° |
| 2026-05-04 20:25 | 50.87558 | 70.63734 | 16132 ft | 382 kts | 236° |
| 2026-05-04 20:26 | 50.86029 | 70.60319 | 16719 ft | 385 kts | 236° |
| 2026-05-04 20:26 | 50.84486 | 70.56872 | 17295 ft | 388 kts | 237° |
| 2026-05-04 20:26 | 50.82914 | 70.53358 | 17864 ft | 391 kts | 237° |
| 2026-05-04 20:26 | 50.81345 | 70.49852 | 18426 ft | 394 kts | 237° |
| 2026-05-04 20:27 | 50.79768 | 70.46328 | 18965 ft | 397 kts | 237° |
| 2026-05-04 20:27 | 50.78173 | 70.42771 | 19482 ft | 401 kts | 237° |
| 2026-05-04 20:27 | 50.76553 | 70.39162 | 19984 ft | 404 kts | 237° |
| 2026-05-04 20:27 | 50.74933 | 70.35559 | 20478 ft | 408 kts | 237° |
| 2026-05-04 20:28 | 50.73299 | 70.31933 | 20967 ft | 411 kts | 236° |
| 2026-05-04 20:28 | 50.71643 | 70.28259 | 21457 ft | 414 kts | 236° |
| 2026-05-04 20:28 | 50.70022 | 70.24478 | 21929 ft | 417 kts | 239° |
| 2026-05-04 20:28 | 50.68612 | 70.20518 | 22404 ft | 419 kts | 244° |
| 2026-05-04 20:29 | 50.67415 | 70.16354 | 22882 ft | 421 kts | 249° |
| 2026-05-04 20:29 | 50.66381 | 70.11979 | 23344 ft | 424 kts | 250° |
| 2026-05-04 20:29 | 50.65390 | 70.07640 | 23782 ft | 427 kts | 251° |
| 2026-05-04 20:29 | 50.64382 | 70.03216 | 24234 ft | 430 kts | 251° |
| 2026-05-04 20:30 | 50.63383 | 69.98843 | 24674 ft | 432 kts | 251° |
| 2026-05-04 20:30 | 50.62356 | 69.94363 | 25102 ft | 435 kts | 251° |
| 2026-05-04 20:30 | 50.61331 | 69.89902 | 25507 ft | 438 kts | 251° |
| 2026-05-04 20:30 | 50.60294 | 69.85406 | 25908 ft | 441 kts | 251° |
| 2026-05-04 20:31 | 50.59244 | 69.80865 | 26304 ft | 443 kts | 251° |
| 2026-05-04 20:31 | 50.58192 | 69.76321 | 26699 ft | 446 kts | 251° |
| 2026-05-04 20:31 | 50.57123 | 69.71721 | 27091 ft | 448 kts | 251° |
| 2026-05-04 20:31 | 50.56059 | 69.67152 | 27468 ft | 450 kts | 251° |
| 2026-05-04 20:32 | 50.54974 | 69.62502 | 27834 ft | 453 kts | 251° |
| 2026-05-04 20:32 | 50.53905 | 69.57928 | 28173 ft | 455 kts | 251° |
| 2026-05-04 20:32 | 50.52795 | 69.53196 | 28539 ft | 458 kts | 251° |
| 2026-05-04 20:32 | 50.51709 | 69.48574 | 29030 ft | 456 kts | 251° |
| 2026-05-04 20:33 | 50.50607 | 69.43898 | 29586 ft | 454 kts | 251° |
| 2026-05-04 20:33 | 50.49527 | 69.39319 | 30087 ft | 452 kts | 251° |
| 2026-05-04 20:33 | 50.48444 | 69.34744 | 30537 ft | 452 kts | 251° |
| 2026-05-04 20:33 | 50.47354 | 69.30145 | 31002 ft | 451 kts | 251° |
| 2026-05-04 20:34 | 50.46261 | 69.25542 | 31495 ft | 449 kts | 251° |
| 2026-05-04 20:34 | 50.45176 | 69.20978 | 31990 ft | 447 kts | 251° |
| 2026-05-04 20:34 | 50.44098 | 69.16455 | 32455 ft | 445 kts | 251° |
| 2026-05-04 20:34 | 50.43019 | 69.11935 | 32912 ft | 444 kts | 251° |
| 2026-05-04 20:35 | 50.41940 | 69.07431 | 33346 ft | 442 kts | 251° |
| 2026-05-04 20:35 | 50.40862 | 69.02939 | 33738 ft | 441 kts | 251° |
| 2026-05-04 20:35 | 50.39791 | 68.98484 | 34108 ft | 441 kts | 251° |
| 2026-05-04 20:35 | 50.38705 | 68.93977 | 34459 ft | 440 kts | 251° |
| 2026-05-04 20:36 | 50.37632 | 68.89535 | 34746 ft | 440 kts | 251° |
| 2026-05-04 20:36 | 50.36544 | 68.85038 | 34995 ft | 441 kts | 251° |
| 2026-05-04 20:36 | 50.35459 | 68.80559 | 35224 ft | 442 kts | 251° |
| 2026-05-04 20:36 | 50.34373 | 68.76093 | 35426 ft | 443 kts | 251° |
| 2026-05-04 20:37 | 50.33290 | 68.71649 | 35606 ft | 444 kts | 251° |
| 2026-05-04 20:37 | 50.32190 | 68.67141 | 35782 ft | 445 kts | 251° |
| 2026-05-04 20:37 | 50.31084 | 68.62621 | 35958 ft | 446 kts | 251° |
| 2026-05-04 20:37 | 50.29982 | 68.58127 | 36046 ft | 447 kts | 251° |
| 2026-05-04 20:38 | 50.27750 | 68.49046 | 36053 ft | 448 kts | 251° |
| 2026-05-04 20:38 | 50.25524 | 68.40035 | 36056 ft | 448 kts | 251° |
| 2026-05-04 20:39 | 50.23279 | 68.30988 | 36053 ft | 449 kts | 250° |
| 2026-05-04 20:39 | 50.21212 | 68.21863 | 36050 ft | 448 kts | 252° |
| 2026-05-04 20:40 | 50.19216 | 68.12656 | 36050 ft | 449 kts | 252° |
| 2026-05-04 20:40 | 50.17216 | 68.03475 | 36052 ft | 448 kts | 252° |
| 2026-05-04 20:41 | 50.15213 | 67.94328 | 36051 ft | 448 kts | 252° |
| 2026-05-04 20:41 | 50.13200 | 67.85171 | 36050 ft | 448 kts | 252° |
| 2026-05-04 20:42 | 50.11187 | 67.76054 | 36047 ft | 448 kts | 252° |
| 2026-05-04 20:42 | 50.09153 | 67.66888 | 36048 ft | 448 kts | 252° |
| 2026-05-04 20:43 | 50.07130 | 67.57814 | 36046 ft | 449 kts | 252° |
| 2026-05-04 20:43 | 50.05078 | 67.48652 | 36048 ft | 449 kts | 252° |
| 2026-05-04 20:44 | 50.03027 | 67.39531 | 36045 ft | 449 kts | 252° |
| 2026-05-04 20:44 | 50.00958 | 67.30374 | 36043 ft | 449 kts | 251° |
| 2026-05-04 20:45 | 49.98895 | 67.21287 | 36037 ft | 449 kts | 251° |
| 2026-05-04 20:45 | 49.96769 | 67.12193 | 36037 ft | 449 kts | 249° |
| 2026-05-04 20:46 | 49.94296 | 67.03300 | 36041 ft | 450 kts | 247° |
| 2026-05-04 20:46 | 49.91799 | 66.94466 | 36037 ft | 450 kts | 247° |
| 2026-05-04 20:47 | 49.89291 | 66.85629 | 36030 ft | 449 kts | 247° |
| 2026-05-04 20:47 | 49.86780 | 66.76823 | 36030 ft | 449 kts | 247° |
| 2026-05-04 20:48 | 49.84256 | 66.68007 | 36028 ft | 450 kts | 247° |
| 2026-05-04 20:48 | 49.81730 | 66.59218 | 36028 ft | 449 kts | 247° |
| 2026-05-04 20:49 | 49.79181 | 66.50379 | 36021 ft | 450 kts | 247° |
| 2026-05-04 20:49 | 49.76637 | 66.41597 | 36018 ft | 450 kts | 247° |
| 2026-05-04 20:50 | 49.74086 | 66.32816 | 36008 ft | 450 kts | 246° |
| 2026-05-04 20:50 | 49.71585 | 66.23952 | 36000 ft | 450 kts | 247° |
| 2026-05-04 20:51 | 49.69109 | 66.15131 | 36007 ft | 449 kts | 246° |
| 2026-05-04 20:51 | 49.66619 | 66.06320 | 35997 ft | 448 kts | 246° |
| 2026-05-04 20:52 | 49.64136 | 65.97581 | 36001 ft | 449 kts | 246° |
| 2026-05-04 20:52 | 49.61620 | 65.88763 | 36005 ft | 449 kts | 246° |
| 2026-05-04 20:53 | 49.59112 | 65.80008 | 36004 ft | 450 kts | 246° |
| 2026-05-04 20:53 | 49.56582 | 65.71202 | 36005 ft | 450 kts | 246° |
| 2026-05-04 20:54 | 49.54063 | 65.62471 | 36001 ft | 450 kts | 246° |
| 2026-05-04 20:54 | 49.51526 | 65.53709 | 35997 ft | 450 kts | 246° |
| 2026-05-04 20:55 | 49.48979 | 65.44949 | 35998 ft | 450 kts | 246° |
| 2026-05-04 20:55 | 49.46435 | 65.36231 | 35988 ft | 450 kts | 246° |
| 2026-05-04 20:56 | 49.43867 | 65.27460 | 35981 ft | 449 kts | 246° |
| 2026-05-04 20:56 | 49.41309 | 65.18755 | 35982 ft | 449 kts | 246° |
| 2026-05-04 20:57 | 49.38748 | 65.10072 | 35981 ft | 449 kts | 246° |
| 2026-05-04 20:57 | 49.36180 | 65.01400 | 35985 ft | 449 kts | 246° |
| 2026-05-04 20:58 | 49.33574 | 64.92741 | 35983 ft | 450 kts | 244° |
| 2026-05-04 20:58 | 49.30827 | 64.84134 | 35984 ft | 450 kts | 244° |
| 2026-05-04 20:59 | 49.28068 | 64.75553 | 35984 ft | 450 kts | 244° |
| 2026-05-04 20:59 | 49.25326 | 64.67030 | 35978 ft | 451 kts | 244° |
| 2026-05-04 21:00 | 49.22554 | 64.58430 | 35971 ft | 451 kts | 244° |
| 2026-05-04 21:00 | 49.19784 | 64.49858 | 35975 ft | 451 kts | 244° |
| 2026-05-04 21:01 | 49.17023 | 64.41339 | 35980 ft | 451 kts | 244° |
| 2026-05-04 21:01 | 49.14234 | 64.32769 | 35976 ft | 451 kts | 243° |
| 2026-05-04 21:02 | 49.11444 | 64.24222 | 35972 ft | 451 kts | 243° |
| 2026-05-04 21:02 | 49.08648 | 64.15684 | 35968 ft | 452 kts | 243° |
| 2026-05-04 21:03 | 49.05846 | 64.07155 | 35976 ft | 452 kts | 243° |
| 2026-05-04 21:03 | 49.03049 | 63.98675 | 35981 ft | 452 kts | 243° |
| 2026-05-04 21:04 | 49.00229 | 63.90155 | 35984 ft | 452 kts | 243° |
| 2026-05-04 21:04 | 48.97405 | 63.81649 | 35981 ft | 453 kts | 243° |
| 2026-05-04 21:05 | 48.94566 | 63.73130 | 35983 ft | 453 kts | 243° |
| 2026-05-04 21:05 | 48.91714 | 63.64603 | 35981 ft | 453 kts | 243° |
| 2026-05-04 21:06 | 48.88866 | 63.56113 | 35981 ft | 453 kts | 244° |
| 2026-05-04 21:06 | 48.86262 | 63.47445 | 35982 ft | 454 kts | 246° |
| 2026-05-04 21:07 | 48.83716 | 63.38732 | 35981 ft | 454 kts | 246° |
| 2026-05-04 21:07 | 48.81140 | 63.29953 | 35978 ft | 454 kts | 245° |
| 2026-05-04 21:08 | 48.78573 | 63.21234 | 35971 ft | 455 kts | 245° |
| 2026-05-04 21:08 | 48.76002 | 63.12536 | 35973 ft | 455 kts | 245° |
| 2026-05-04 21:09 | 48.73423 | 63.03842 | 35971 ft | 456 kts | 245° |
| 2026-05-04 21:09 | 48.70817 | 62.95087 | 35976 ft | 456 kts | 245° |
| 2026-05-04 21:10 | 48.68210 | 62.86365 | 35974 ft | 455 kts | 245° |
| 2026-05-04 21:10 | 48.65603 | 62.77673 | 35974 ft | 455 kts | 245° |
| 2026-05-04 21:11 | 48.63009 | 62.69058 | 35972 ft | 454 kts | 245° |
| 2026-05-04 21:11 | 48.60257 | 62.60466 | 35975 ft | 454 kts | 243° |
| 2026-05-04 21:12 | 48.57437 | 62.52010 | 35975 ft | 454 kts | 243° |
| 2026-05-04 21:12 | 48.54605 | 62.43517 | 35971 ft | 454 kts | 243° |
| 2026-05-04 21:13 | 48.51776 | 62.35036 | 35968 ft | 454 kts | 243° |
| 2026-05-04 21:13 | 48.48953 | 62.26590 | 35967 ft | 455 kts | 243° |
| 2026-05-04 21:14 | 48.46106 | 62.18097 | 35964 ft | 454 kts | 243° |
| 2026-05-04 21:14 | 48.43258 | 62.09628 | 35957 ft | 454 kts | 243° |
| 2026-05-04 21:15 | 48.40410 | 62.01182 | 35951 ft | 454 kts | 243° |
| 2026-05-04 21:15 | 48.37553 | 61.92738 | 35949 ft | 454 kts | 243° |
| 2026-05-04 21:16 | 48.34690 | 61.84308 | 35940 ft | 454 kts | 243° |
| 2026-05-04 21:16 | 48.31836 | 61.75933 | 35943 ft | 455 kts | 243° |
| 2026-05-04 21:17 | 48.28944 | 61.67474 | 35950 ft | 455 kts | 243° |
| 2026-05-04 21:17 | 48.26183 | 61.59420 | 35942 ft | 455 kts | 243° |
| 2026-05-04 21:18 | 48.23251 | 61.50896 | 35946 ft | 456 kts | 243° |
| 2026-05-04 21:18 | 48.20353 | 61.42496 | 35943 ft | 456 kts | 243° |
| 2026-05-04 21:19 | 48.17444 | 61.34093 | 35947 ft | 456 kts | 242° |
| 2026-05-04 21:19 | 48.14530 | 61.25705 | 35939 ft | 456 kts | 242° |
| 2026-05-04 21:20 | 48.11591 | 61.17270 | 35939 ft | 457 kts | 242° |
| 2026-05-04 21:20 | 48.08667 | 61.08907 | 35939 ft | 457 kts | 242° |
| 2026-05-04 21:21 | 48.05732 | 61.00544 | 35942 ft | 457 kts | 242° |
| 2026-05-04 21:21 | 48.02784 | 60.92165 | 35944 ft | 456 kts | 242° |
| 2026-05-04 21:22 | 47.99828 | 60.83789 | 35947 ft | 456 kts | 242° |
| 2026-05-04 21:22 | 47.96885 | 60.75476 | 35942 ft | 456 kts | 242° |
| 2026-05-04 21:23 | 47.93932 | 60.67166 | 35942 ft | 456 kts | 242° |
| 2026-05-04 21:23 | 47.90971 | 60.58860 | 35938 ft | 456 kts | 242° |
| 2026-05-04 21:24 | 47.87989 | 60.50517 | 35940 ft | 456 kts | 242° |
| 2026-05-04 21:24 | 47.85031 | 60.42271 | 35937 ft | 455 kts | 242° |
| 2026-05-04 21:25 | 47.82037 | 60.33954 | 35930 ft | 455 kts | 242° |
| 2026-05-04 21:25 | 47.79061 | 60.25711 | 35931 ft | 454 kts | 242° |
| 2026-05-04 21:26 | 47.76086 | 60.17498 | 35937 ft | 454 kts | 242° |
| 2026-05-04 21:26 | 47.73105 | 60.09290 | 35925 ft | 453 kts | 242° |
| 2026-05-04 21:27 | 47.70103 | 60.01041 | 35931 ft | 454 kts | 242° |
| 2026-05-04 21:27 | 47.67116 | 59.92866 | 35938 ft | 454 kts | 242° |
| 2026-05-04 21:28 | 47.64111 | 59.84669 | 35930 ft | 453 kts | 242° |
| 2026-05-04 21:28 | 47.61099 | 59.76477 | 35938 ft | 454 kts | 242° |
| 2026-05-04 21:29 | 47.58096 | 59.68339 | 35937 ft | 454 kts | 242° |
| 2026-05-04 21:29 | 47.55078 | 59.60184 | 35932 ft | 454 kts | 242° |
| 2026-05-04 21:30 | 47.52052 | 59.52034 | 35931 ft | 454 kts | 242° |
| 2026-05-04 21:30 | 47.49009 | 59.43864 | 35930 ft | 453 kts | 242° |
| 2026-05-04 21:31 | 47.44466 | 59.31710 | 35930 ft | 453 kts | 241° |
| 2026-05-04 21:32 | 47.41426 | 59.23609 | 35933 ft | 453 kts | 241° |
| 2026-05-04 21:32 | 47.38384 | 59.15527 | 35927 ft | 453 kts | 241° |
| 2026-05-04 21:33 | 47.35314 | 59.07396 | 35919 ft | 454 kts | 241° |
| 2026-05-04 21:33 | 47.32254 | 58.99315 | 35916 ft | 454 kts | 241° |
| 2026-05-04 21:34 | 47.29195 | 58.91260 | 35907 ft | 454 kts | 241° |
| 2026-05-04 21:34 | 47.26123 | 58.83195 | 35905 ft | 454 kts | 241° |
| 2026-05-04 21:35 | 47.23042 | 58.75130 | 35899 ft | 454 kts | 241° |
| 2026-05-04 21:35 | 47.19942 | 58.67043 | 35903 ft | 454 kts | 241° |
| 2026-05-04 21:36 | 47.16851 | 58.59001 | 35902 ft | 454 kts | 241° |
| 2026-05-04 21:36 | 47.13755 | 58.50967 | 35903 ft | 454 kts | 241° |
| 2026-05-04 21:37 | 47.10638 | 58.42908 | 35903 ft | 455 kts | 241° |
| 2026-05-04 21:37 | 47.07519 | 58.34866 | 35902 ft | 455 kts | 240° |
| 2026-05-04 21:38 | 47.04414 | 58.26887 | 35897 ft | 455 kts | 240° |
| 2026-05-04 21:38 | 47.01265 | 58.18815 | 35896 ft | 455 kts | 240° |
| 2026-05-04 21:39 | 46.98141 | 58.10833 | 35898 ft | 454 kts | 240° |
| 2026-05-04 21:39 | 46.95015 | 58.02867 | 35891 ft | 455 kts | 240° |
| 2026-05-04 21:40 | 46.91852 | 57.94828 | 35883 ft | 455 kts | 240° |
| 2026-05-04 21:40 | 46.88699 | 57.86840 | 35885 ft | 455 kts | 240° |
| 2026-05-04 21:41 | 46.85537 | 57.78856 | 35887 ft | 455 kts | 240° |
| 2026-05-04 21:41 | 46.82381 | 57.70908 | 35886 ft | 455 kts | 240° |
| 2026-05-04 21:42 | 46.79219 | 57.62973 | 35888 ft | 455 kts | 240° |
| 2026-05-04 21:42 | 46.76051 | 57.55042 | 35884 ft | 454 kts | 240° |
| 2026-05-04 21:43 | 46.72868 | 57.47098 | 35870 ft | 454 kts | 240° |
| 2026-05-04 21:43 | 46.69677 | 57.39156 | 35867 ft | 455 kts | 240° |
| 2026-05-04 21:44 | 46.66492 | 57.31251 | 35866 ft | 455 kts | 239° |
| 2026-05-04 21:44 | 46.63300 | 57.23350 | 35863 ft | 455 kts | 239° |
| 2026-05-04 21:45 | 46.60099 | 57.15458 | 35861 ft | 455 kts | 239° |
| 2026-05-04 21:45 | 46.56884 | 57.07552 | 35868 ft | 454 kts | 239° |
| 2026-05-04 21:46 | 46.53679 | 56.99694 | 35862 ft | 454 kts | 239° |
| 2026-05-04 21:46 | 46.50224 | 56.92065 | 35856 ft | 454 kts | 234° |
| 2026-05-04 21:47 | 46.46265 | 56.84998 | 35871 ft | 454 kts | 228° |
| 2026-05-04 21:47 | 46.41831 | 56.78543 | 35879 ft | 453 kts | 223° |
| 2026-05-04 21:48 | 46.37077 | 56.72611 | 35880 ft | 453 kts | 221° |
| 2026-05-04 21:48 | 46.32295 | 56.66685 | 35879 ft | 453 kts | 221° |
| 2026-05-04 21:49 | 46.27556 | 56.60826 | 35874 ft | 452 kts | 221° |
| 2026-05-04 21:49 | 46.22786 | 56.54943 | 35872 ft | 451 kts | 221° |
| 2026-05-04 21:50 | 46.18006 | 56.49065 | 35868 ft | 451 kts | 221° |
| 2026-05-04 21:50 | 46.13269 | 56.43253 | 35867 ft | 450 kts | 221° |
| 2026-05-04 21:51 | 46.08514 | 56.37432 | 35856 ft | 450 kts | 221° |
| 2026-05-04 21:51 | 46.03731 | 56.31593 | 35847 ft | 450 kts | 220° |
| 2026-05-04 21:52 | 45.98991 | 56.25818 | 35840 ft | 449 kts | 220° |
| 2026-05-04 21:52 | 45.94221 | 56.20020 | 35832 ft | 449 kts | 220° |
| 2026-05-04 21:53 | 45.89480 | 56.14267 | 35830 ft | 448 kts | 220° |
| 2026-05-04 21:53 | 45.84746 | 56.08544 | 35828 ft | 448 kts | 220° |
| 2026-05-04 21:54 | 45.79971 | 56.02777 | 35827 ft | 448 kts | 220° |
| 2026-05-04 21:54 | 45.75235 | 55.97074 | 35814 ft | 448 kts | 220° |
| 2026-05-04 21:55 | 45.70478 | 55.91360 | 35822 ft | 447 kts | 220° |
| 2026-05-04 21:55 | 45.65721 | 55.85658 | 35819 ft | 447 kts | 220° |
| 2026-05-04 21:56 | 45.60960 | 55.79964 | 35820 ft | 447 kts | 220° |
| 2026-05-04 21:56 | 45.56215 | 55.74301 | 35826 ft | 447 kts | 221° |
| 2026-05-04 21:57 | 45.51441 | 55.68617 | 35829 ft | 447 kts | 220° |
| 2026-05-04 21:57 | 45.46698 | 55.62985 | 35828 ft | 446 kts | 221° |
| 2026-05-04 21:58 | 45.41934 | 55.57339 | 35831 ft | 446 kts | 221° |
| 2026-05-04 21:58 | 45.37199 | 55.51740 | 35825 ft | 446 kts | 221° |
| 2026-05-04 21:59 | 45.32417 | 55.46097 | 35818 ft | 445 kts | 221° |
| 2026-05-04 21:59 | 45.27686 | 55.40528 | 35823 ft | 446 kts | 221° |
| 2026-05-04 22:00 | 45.22937 | 55.34952 | 35828 ft | 445 kts | 220° |
| 2026-05-04 22:00 | 45.18171 | 55.29370 | 35825 ft | 445 kts | 220° |
| 2026-05-04 22:01 | 45.13412 | 55.23808 | 35818 ft | 444 kts | 220° |
| 2026-05-04 22:01 | 45.08679 | 55.18249 | 35812 ft | 443 kts | 222° |
| 2026-05-04 22:02 | 45.04132 | 55.12367 | 35815 ft | 442 kts | 224° |
| 2026-05-04 22:02 | 44.99620 | 55.06517 | 35805 ft | 441 kts | 223° |
| 2026-05-04 22:03 | 44.95126 | 55.00703 | 35811 ft | 442 kts | 224° |
| 2026-05-04 22:03 | 44.90618 | 54.94878 | 35806 ft | 441 kts | 223° |
| 2026-05-04 22:04 | 44.86091 | 54.89040 | 35812 ft | 441 kts | 224° |
| 2026-05-04 22:04 | 44.81583 | 54.83242 | 35813 ft | 441 kts | 223° |
| 2026-05-04 22:05 | 44.77076 | 54.77459 | 35807 ft | 441 kts | 223° |
| 2026-05-04 22:05 | 44.72555 | 54.71672 | 35812 ft | 441 kts | 224° |
| 2026-05-04 22:06 | 44.68153 | 54.65705 | 35814 ft | 440 kts | 227° |
| 2026-05-04 22:06 | 44.64179 | 54.59219 | 35815 ft | 440 kts | 232° |
| 2026-05-04 22:07 | 44.60598 | 54.52232 | 35815 ft | 440 kts | 235° |
| 2026-05-04 22:07 | 44.57105 | 54.45233 | 35813 ft | 439 kts | 235° |
| 2026-05-04 22:08 | 44.53626 | 54.38274 | 35816 ft | 439 kts | 235° |
| 2026-05-04 22:08 | 44.50116 | 54.31267 | 35821 ft | 439 kts | 234° |
| 2026-05-04 22:09 | 44.46624 | 54.24312 | 35827 ft | 440 kts | 234° |
| 2026-05-04 22:09 | 44.43101 | 54.17311 | 35824 ft | 440 kts | 234° |
| 2026-05-04 22:10 | 44.39583 | 54.10334 | 35825 ft | 441 kts | 234° |
| 2026-05-04 22:10 | 44.36066 | 54.03379 | 35828 ft | 441 kts | 234° |
| 2026-05-04 22:11 | 44.32551 | 53.96440 | 35824 ft | 440 kts | 234° |
| 2026-05-04 22:11 | 44.29022 | 53.89489 | 35824 ft | 440 kts | 234° |
| 2026-05-04 22:12 | 44.25487 | 53.82550 | 35827 ft | 440 kts | 234° |
| 2026-05-04 22:12 | 44.21936 | 53.75592 | 35819 ft | 440 kts | 234° |
| 2026-05-04 22:13 | 44.18396 | 53.68671 | 35825 ft | 440 kts | 234° |
| 2026-05-04 22:13 | 44.14868 | 53.61793 | 35825 ft | 440 kts | 234° |
| 2026-05-04 22:14 | 44.11312 | 53.54879 | 35822 ft | 441 kts | 234° |
| 2026-05-04 22:14 | 44.07746 | 53.47958 | 35828 ft | 441 kts | 234° |
| 2026-05-04 22:15 | 44.04200 | 53.41090 | 35814 ft | 441 kts | 234° |
| 2026-05-04 22:15 | 44.00621 | 53.34180 | 35822 ft | 440 kts | 233° |
| 2026-05-04 22:16 | 43.97057 | 53.27314 | 35822 ft | 440 kts | 233° |
| 2026-05-04 22:16 | 43.93487 | 53.20453 | 35828 ft | 441 kts | 233° |
| 2026-05-04 22:17 | 43.89894 | 53.13567 | 35831 ft | 440 kts | 233° |
| 2026-05-04 22:17 | 43.86314 | 53.06715 | 35832 ft | 440 kts | 233° |
| 2026-05-04 22:18 | 43.82752 | 52.99916 | 35832 ft | 440 kts | 233° |
| 2026-05-04 22:18 | 43.79150 | 52.93061 | 35829 ft | 440 kts | 233° |
| 2026-05-04 22:19 | 43.75553 | 52.86232 | 35827 ft | 440 kts | 233° |
| 2026-05-04 22:19 | 43.71979 | 52.79465 | 35826 ft | 440 kts | 233° |
| 2026-05-04 22:20 | 43.68386 | 52.72680 | 35825 ft | 439 kts | 233° |
| 2026-05-04 22:20 | 43.64763 | 52.65851 | 35824 ft | 439 kts | 233° |
| 2026-05-04 22:21 | 43.61165 | 52.59098 | 35827 ft | 438 kts | 233° |
| 2026-05-04 22:21 | 43.57570 | 52.52376 | 35827 ft | 439 kts | 233° |
| 2026-05-04 22:22 | 43.53956 | 52.45634 | 35818 ft | 437 kts | 233° |
| 2026-05-04 22:22 | 43.50370 | 52.38961 | 35832 ft | 435 kts | 233° |
| 2026-05-04 22:23 | 43.46758 | 52.32253 | 35849 ft | 434 kts | 233° |
| 2026-05-04 22:23 | 43.43176 | 52.25618 | 35847 ft | 434 kts | 232° |
| 2026-05-04 22:24 | 43.39589 | 52.18985 | 35848 ft | 434 kts | 232° |
| 2026-05-04 22:24 | 43.36008 | 52.12380 | 35849 ft | 433 kts | 232° |
| 2026-05-04 22:25 | 43.32422 | 52.05780 | 35847 ft | 433 kts | 232° |
| 2026-05-04 22:25 | 43.28817 | 51.99162 | 35849 ft | 433 kts | 232° |
| 2026-05-04 22:26 | 43.25209 | 51.92553 | 35851 ft | 433 kts | 232° |
| 2026-05-04 22:26 | 43.21666 | 51.86075 | 35868 ft | 436 kts | 232° |
| 2026-05-04 22:26 | 43.19850 | 51.82761 | 36040 ft | 436 kts | 232° |
| 2026-05-04 22:27 | 43.18047 | 51.79476 | 36330 ft | 434 kts | 232° |
| 2026-05-04 22:27 | 43.16218 | 51.76144 | 36588 ft | 433 kts | 232° |
| 2026-05-04 22:27 | 43.14434 | 51.72900 | 36788 ft | 433 kts | 232° |
| 2026-05-04 22:27 | 43.12617 | 51.69600 | 36970 ft | 433 kts | 232° |
| 2026-05-04 22:28 | 43.10813 | 51.66326 | 37142 ft | 433 kts | 232° |
| 2026-05-04 22:28 | 43.09022 | 51.63076 | 37312 ft | 433 kts | 232° |
| 2026-05-04 22:28 | 43.07198 | 51.59775 | 37486 ft | 433 kts | 232° |
| 2026-05-04 22:28 | 43.05390 | 51.56505 | 37647 ft | 433 kts | 232° |
| 2026-05-04 22:29 | 43.03565 | 51.53208 | 37800 ft | 433 kts | 232° |
| 2026-05-04 22:29 | 43.01769 | 51.49965 | 37953 ft | 433 kts | 232° |
| 2026-05-04 22:29 | 42.99958 | 51.46702 | 38097 ft | 432 kts | 232° |
| 2026-05-04 22:29 | 42.98157 | 51.43460 | 38227 ft | 432 kts | 232° |
| 2026-05-04 22:30 | 42.96323 | 51.40159 | 38357 ft | 432 kts | 232° |
| 2026-05-04 22:30 | 42.94516 | 51.36912 | 38484 ft | 432 kts | 232° |
| 2026-05-04 22:30 | 42.92723 | 51.33695 | 38597 ft | 432 kts | 232° |
| 2026-05-04 22:31 | 42.89075 | 51.27159 | 38803 ft | 433 kts | 232° |
| 2026-05-04 22:31 | 42.87269 | 51.23926 | 38906 ft | 433 kts | 232° |
| 2026-05-04 22:31 | 42.85446 | 51.20668 | 39006 ft | 433 kts | 232° |
| 2026-05-04 22:31 | 42.83620 | 51.17409 | 39109 ft | 433 kts | 232° |
| 2026-05-04 22:32 | 42.81788 | 51.14143 | 39210 ft | 433 kts | 232° |
| 2026-05-04 22:32 | 42.78148 | 51.07663 | 39372 ft | 433 kts | 232° |
| 2026-05-04 22:33 | 42.74488 | 51.01161 | 39518 ft | 434 kts | 232° |
| 2026-05-04 22:33 | 42.70838 | 50.94692 | 39641 ft | 434 kts | 232° |
| 2026-05-04 22:34 | 42.67177 | 50.88219 | 39786 ft | 434 kts | 232° |
| 2026-05-04 22:34 | 42.63487 | 50.81707 | 39849 ft | 435 kts | 232° |
| 2026-05-04 22:35 | 42.59828 | 50.75266 | 39854 ft | 435 kts | 232° |
| 2026-05-04 22:35 | 42.56113 | 50.68739 | 39858 ft | 436 kts | 232° |
| 2026-05-04 22:36 | 42.52431 | 50.62283 | 39863 ft | 435 kts | 232° |
| 2026-05-04 22:36 | 42.48737 | 50.55825 | 39857 ft | 435 kts | 232° |
| 2026-05-04 22:37 | 42.45052 | 50.49393 | 39859 ft | 435 kts | 232° |
| 2026-05-04 22:37 | 42.41477 | 50.42807 | 39858 ft | 435 kts | 234° |
| 2026-05-04 22:38 | 42.37968 | 50.36165 | 39858 ft | 435 kts | 234° |
| 2026-05-04 22:38 | 42.34468 | 50.29561 | 39855 ft | 435 kts | 233° |
| 2026-05-04 22:39 | 42.30958 | 50.22947 | 39860 ft | 435 kts | 233° |
| 2026-05-04 22:39 | 42.27432 | 50.16318 | 39868 ft | 434 kts | 233° |
| 2026-05-04 22:40 | 42.23923 | 50.09737 | 39872 ft | 434 kts | 233° |
| 2026-05-04 22:40 | 42.20416 | 50.03172 | 39869 ft | 434 kts | 233° |
| 2026-05-04 22:41 | 42.16884 | 49.96576 | 39878 ft | 433 kts | 233° |
| 2026-05-04 22:41 | 42.13376 | 49.90035 | 39876 ft | 433 kts | 233° |
| 2026-05-04 22:42 | 42.09852 | 49.83482 | 39872 ft | 433 kts | 233° |
| 2026-05-04 22:42 | 42.06327 | 49.76938 | 39877 ft | 433 kts | 233° |
| 2026-05-04 22:43 | 42.02803 | 49.70414 | 39873 ft | 433 kts | 233° |
| 2026-05-04 22:43 | 41.99292 | 49.63929 | 39881 ft | 432 kts | 233° |
| 2026-05-04 22:44 | 41.95766 | 49.57429 | 39878 ft | 432 kts | 233° |
| 2026-05-04 22:44 | 41.92220 | 49.50906 | 39880 ft | 432 kts | 233° |
| 2026-05-04 22:45 | 41.88706 | 49.44457 | 39883 ft | 432 kts | 233° |
| 2026-05-04 22:45 | 41.83389 | 49.34725 | 39872 ft | 431 kts | 232° |
| 2026-05-04 22:46 | 41.79946 | 49.28201 | 39879 ft | 431 kts | 234° |
| 2026-05-04 22:46 | 41.76638 | 49.21540 | 39883 ft | 430 kts | 235° |
| 2026-05-04 22:47 | 41.73333 | 49.14916 | 39882 ft | 431 kts | 234° |
| 2026-05-04 22:47 | 41.70013 | 49.08273 | 39882 ft | 431 kts | 234° |
| 2026-05-04 22:48 | 41.66693 | 49.01641 | 39879 ft | 431 kts | 234° |
| 2026-05-04 22:48 | 41.63353 | 48.94984 | 39868 ft | 431 kts | 234° |
| 2026-05-04 22:49 | 41.60018 | 48.88353 | 39876 ft | 431 kts | 234° |
| 2026-05-04 22:49 | 41.56699 | 48.81770 | 39863 ft | 430 kts | 234° |
| 2026-05-04 22:50 | 41.53357 | 48.75158 | 39877 ft | 429 kts | 234° |
| 2026-05-04 22:50 | 41.49846 | 48.68743 | 39857 ft | 429 kts | 232° |
| 2026-05-04 22:51 | 41.46316 | 48.62411 | 39874 ft | 428 kts | 232° |
| 2026-05-04 22:51 | 41.42757 | 48.56048 | 39868 ft | 429 kts | 232° |
| 2026-05-04 22:52 | 41.39267 | 48.49678 | 39873 ft | 428 kts | 233° |
| 2026-05-04 22:52 | 41.35776 | 48.43245 | 39862 ft | 428 kts | 233° |
| 2026-05-04 22:53 | 41.32302 | 48.36870 | 39893 ft | 427 kts | 233° |
| 2026-05-04 22:53 | 41.28826 | 48.30514 | 39935 ft | 428 kts | 232° |
| 2026-05-04 22:54 | 41.25333 | 48.24138 | 39988 ft | 427 kts | 232° |
| 2026-05-04 22:54 | 41.21840 | 48.17788 | 40013 ft | 428 kts | 232° |
| 2026-05-04 22:55 | 41.18337 | 48.11426 | 40031 ft | 428 kts | 232° |
| 2026-05-04 22:55 | 41.14989 | 48.04913 | 40019 ft | 430 kts | 237° |
| 2026-05-04 22:56 | 41.12149 | 47.97900 | 40035 ft | 432 kts | 242° |
| 2026-05-04 22:56 | 41.09893 | 47.90509 | 39993 ft | 435 kts | 248° |
| 2026-05-04 22:57 | 41.08261 | 47.82866 | 39970 ft | 436 kts | 252° |
| 2026-05-04 22:57 | 41.06867 | 47.75056 | 39917 ft | 436 kts | 253° |
| 2026-05-04 22:58 | 41.05476 | 47.67268 | 39894 ft | 435 kts | 253° |
| 2026-05-04 22:58 | 41.04084 | 47.59475 | 39891 ft | 436 kts | 253° |
| 2026-05-04 22:59 | 41.02685 | 47.51690 | 39880 ft | 436 kts | 253° |
| 2026-05-04 22:59 | 41.01286 | 47.43930 | 39873 ft | 435 kts | 252° |
| 2026-05-04 23:00 | 40.99880 | 47.36163 | 39859 ft | 434 kts | 253° |
| 2026-05-04 23:00 | 40.98486 | 47.28497 | 39862 ft | 432 kts | 252° |
| 2026-05-04 23:01 | 40.97075 | 47.20764 | 39839 ft | 432 kts | 252° |
| 2026-05-04 23:01 | 40.95659 | 47.13041 | 39850 ft | 433 kts | 251° |
| 2026-05-04 23:02 | 40.94237 | 47.05324 | 39853 ft | 433 kts | 252° |
| 2026-05-04 23:02 | 40.92810 | 46.97614 | 39850 ft | 434 kts | 252° |
| 2026-05-04 23:03 | 40.91378 | 46.89914 | 39831 ft | 434 kts | 252° |
| 2026-05-04 23:03 | 40.90052 | 46.82119 | 39840 ft | 437 kts | 255° |
| 2026-05-04 23:04 | 40.89200 | 46.74152 | 39818 ft | 439 kts | 258° |
| 2026-05-04 23:04 | 40.88449 | 46.66184 | 39845 ft | 439 kts | 258° |
| 2026-05-04 23:05 | 40.87696 | 46.58236 | 39836 ft | 439 kts | 258° |
| 2026-05-04 23:05 | 40.86933 | 46.50238 | 39835 ft | 440 kts | 258° |
| 2026-05-04 23:06 | 40.86167 | 46.42273 | 39843 ft | 439 kts | 258° |
| 2026-05-04 23:06 | 40.85393 | 46.34280 | 39822 ft | 441 kts | 258° |
| 2026-05-04 23:07 | 40.84605 | 46.26239 | 39847 ft | 442 kts | 257° |
| 2026-05-04 23:07 | 40.83817 | 46.18205 | 39830 ft | 443 kts | 258° |
| 2026-05-04 23:08 | 40.83022 | 46.10186 | 39838 ft | 443 kts | 257° |
| 2026-05-04 23:08 | 40.82219 | 46.02136 | 39844 ft | 442 kts | 258° |
| 2026-05-04 23:09 | 40.81411 | 45.94107 | 39853 ft | 443 kts | 258° |
| 2026-05-04 23:09 | 40.80593 | 45.86043 | 39861 ft | 444 kts | 258° |
| 2026-05-04 23:10 | 40.79776 | 45.78042 | 39860 ft | 445 kts | 257° |
| 2026-05-04 23:10 | 40.78939 | 45.69931 | 39876 ft | 445 kts | 258° |
| 2026-05-04 23:11 | 40.78106 | 45.61890 | 39891 ft | 446 kts | 258° |
| 2026-05-04 23:11 | 40.77364 | 45.53746 | 39887 ft | 449 kts | 261° |
| 2026-05-04 23:12 | 40.77174 | 45.45509 | 39902 ft | 454 kts | 266° |
| 2026-05-04 23:12 | 40.77491 | 45.37214 | 39897 ft | 456 kts | 269° |
| 2026-05-04 23:13 | 40.77879 | 45.28860 | 39916 ft | 455 kts | 268° |
| 2026-05-04 23:13 | 40.78254 | 45.20588 | 39918 ft | 456 kts | 268° |
| 2026-05-04 23:14 | 40.78625 | 45.12233 | 39924 ft | 456 kts | 268° |
| 2026-05-04 23:14 | 40.78988 | 45.03916 | 39909 ft | 457 kts | 268° |
| 2026-05-04 23:15 | 40.79346 | 44.95512 | 39922 ft | 459 kts | 268° |
| 2026-05-04 23:15 | 40.79700 | 44.87127 | 39913 ft | 459 kts | 268° |
| 2026-05-04 23:16 | 40.80045 | 44.78798 | 39929 ft | 459 kts | 268° |
| 2026-05-04 23:16 | 40.80387 | 44.70387 | 39920 ft | 459 kts | 268° |
| 2026-05-04 23:17 | 40.80722 | 44.61975 | 39924 ft | 460 kts | 268° |
| 2026-05-04 23:17 | 40.81050 | 44.53598 | 39926 ft | 461 kts | 268° |
| 2026-05-04 23:18 | 40.81374 | 44.45141 | 39925 ft | 461 kts | 269° |
| 2026-05-04 23:18 | 40.81693 | 44.36699 | 39924 ft | 461 kts | 268° |
| 2026-05-04 23:19 | 40.82003 | 44.28306 | 39927 ft | 461 kts | 268° |
| 2026-05-04 23:19 | 40.82307 | 44.19895 | 39924 ft | 460 kts | 268° |
| 2026-05-04 23:20 | 40.82605 | 44.11446 | 39930 ft | 462 kts | 268° |
| 2026-05-04 23:20 | 40.82898 | 44.02972 | 39927 ft | 463 kts | 268° |
| 2026-05-04 23:21 | 40.83183 | 43.94507 | 39941 ft | 463 kts | 268° |
| 2026-05-04 23:21 | 40.83461 | 43.86055 | 39940 ft | 464 kts | 268° |
| 2026-05-04 23:22 | 40.83738 | 43.77564 | 39943 ft | 464 kts | 268° |
| 2026-05-04 23:22 | 40.84010 | 43.69073 | 39939 ft | 464 kts | 268° |
| 2026-05-04 23:23 | 40.84433 | 43.60612 | 39952 ft | 465 kts | 271° |
| 2026-05-04 23:23 | 40.84939 | 43.52121 | 39955 ft | 467 kts | 271° |
| 2026-05-04 23:24 | 40.85426 | 43.43587 | 39945 ft | 466 kts | 270° |
| 2026-05-04 23:24 | 40.85894 | 43.35089 | 39944 ft | 466 kts | 270° |
| 2026-05-04 23:25 | 40.86352 | 43.26578 | 39951 ft | 467 kts | 270° |
| 2026-05-04 23:25 | 40.86804 | 43.18047 | 39962 ft | 468 kts | 270° |
| 2026-05-04 23:26 | 40.87250 | 43.09507 | 39950 ft | 467 kts | 270° |
| 2026-05-04 23:26 | 40.87689 | 43.00980 | 39944 ft | 467 kts | 270° |
| 2026-05-04 23:27 | 40.88120 | 42.92432 | 39945 ft | 468 kts | 270° |
| 2026-05-04 23:27 | 40.88546 | 42.83889 | 39943 ft | 468 kts | 270° |
| 2026-05-04 23:28 | 40.88966 | 42.75340 | 39936 ft | 468 kts | 270° |
| 2026-05-04 23:28 | 40.89382 | 42.66748 | 39942 ft | 468 kts | 270° |
| 2026-05-04 23:29 | 40.89790 | 42.58193 | 39942 ft | 468 kts | 270° |
| 2026-05-04 23:29 | 40.90190 | 42.49667 | 39937 ft | 468 kts | 270° |
| 2026-05-04 23:30 | 40.90585 | 42.41096 | 39927 ft | 468 kts | 270° |
| 2026-05-04 23:30 | 40.90976 | 42.32500 | 39929 ft | 468 kts | 270° |
| 2026-05-04 23:31 | 40.91358 | 42.23965 | 39922 ft | 468 kts | 270° |
| 2026-05-04 23:31 | 40.91733 | 42.15425 | 39923 ft | 468 kts | 270° |
| 2026-05-04 23:32 | 40.92103 | 42.06819 | 39922 ft | 469 kts | 270° |
| 2026-05-04 23:32 | 40.92466 | 41.98244 | 39908 ft | 470 kts | 270° |
| 2026-05-04 23:33 | 40.92827 | 41.89629 | 39921 ft | 469 kts | 270° |
| 2026-05-04 23:33 | 40.93175 | 41.81087 | 39937 ft | 469 kts | 270° |
| 2026-05-04 23:34 | 40.93520 | 41.72494 | 39946 ft | 470 kts | 270° |
| 2026-05-04 23:34 | 40.93861 | 41.63883 | 39949 ft | 470 kts | 270° |
| 2026-05-04 23:35 | 40.94192 | 41.55329 | 39951 ft | 470 kts | 270° |
| 2026-05-04 23:35 | 40.94519 | 41.46692 | 39946 ft | 470 kts | 270° |
| 2026-05-04 23:36 | 40.94837 | 41.38106 | 39946 ft | 471 kts | 270° |
| 2026-05-04 23:36 | 40.95150 | 41.29503 | 39945 ft | 470 kts | 269° |
| 2026-05-04 23:37 | 40.95457 | 41.20892 | 39944 ft | 470 kts | 269° |
| 2026-05-04 23:37 | 40.95756 | 41.12270 | 39942 ft | 469 kts | 270° |
| 2026-05-04 23:38 | 40.96049 | 41.03646 | 39934 ft | 470 kts | 270° |
| 2026-05-04 23:38 | 40.96331 | 40.95078 | 39924 ft | 470 kts | 270° |
| 2026-05-04 23:39 | 40.96612 | 40.86467 | 39913 ft | 472 kts | 270° |
| 2026-05-04 23:39 | 40.96896 | 40.77791 | 39906 ft | 472 kts | 270° |
| 2026-05-04 23:40 | 40.97170 | 40.69120 | 39906 ft | 473 kts | 270° |
| 2026-05-04 23:40 | 40.97433 | 40.60500 | 39911 ft | 473 kts | 270° |
| 2026-05-04 23:41 | 40.97691 | 40.51824 | 39911 ft | 472 kts | 270° |
| 2026-05-04 23:41 | 40.97940 | 40.43131 | 39903 ft | 472 kts | 270° |
| 2026-05-04 23:42 | 40.98180 | 40.34508 | 39893 ft | 473 kts | 269° |
| 2026-05-04 23:42 | 40.98413 | 40.25820 | 39889 ft | 473 kts | 269° |
| 2026-05-04 23:43 | 40.98644 | 40.17174 | 39891 ft | 473 kts | 269° |
| 2026-05-04 23:43 | 40.98871 | 40.08486 | 39891 ft | 474 kts | 269° |
| 2026-05-04 23:44 | 40.99084 | 39.99821 | 39889 ft | 475 kts | 269° |
| 2026-05-04 23:44 | 40.99291 | 39.91094 | 39887 ft | 475 kts | 269° |
| 2026-05-04 23:45 | 40.99498 | 39.82410 | 39891 ft | 475 kts | 271° |
| 2026-05-04 23:45 | 41.00114 | 39.73750 | 39895 ft | 476 kts | 275° |
| 2026-05-04 23:46 | 41.00952 | 39.65096 | 39893 ft | 476 kts | 275° |
| 2026-05-04 23:46 | 41.01789 | 39.56408 | 39892 ft | 477 kts | 275° |
| 2026-05-04 23:47 | 41.02608 | 39.47756 | 39889 ft | 477 kts | 275° |
| 2026-05-04 23:47 | 41.03424 | 39.39043 | 39886 ft | 478 kts | 275° |
| 2026-05-04 23:48 | 41.04227 | 39.30370 | 39885 ft | 478 kts | 274° |
| 2026-05-04 23:48 | 41.05028 | 39.21659 | 39880 ft | 478 kts | 274° |
| 2026-05-04 23:49 | 41.05822 | 39.12952 | 39882 ft | 477 kts | 275° |
| 2026-05-04 23:49 | 41.06634 | 39.04243 | 39885 ft | 477 kts | 275° |
| 2026-05-04 23:50 | 41.07437 | 38.95570 | 39889 ft | 478 kts | 275° |
| 2026-05-04 23:50 | 41.08232 | 38.86826 | 39888 ft | 479 kts | 275° |
| 2026-05-04 23:51 | 41.09017 | 38.78115 | 39895 ft | 479 kts | 275° |
| 2026-05-04 23:51 | 41.09793 | 38.69418 | 39901 ft | 479 kts | 275° |
| 2026-05-04 23:52 | 41.10554 | 38.60646 | 39903 ft | 480 kts | 275° |
| 2026-05-04 23:52 | 41.11301 | 38.51860 | 39907 ft | 480 kts | 275° |
| 2026-05-04 23:53 | 41.12029 | 38.43147 | 39911 ft | 480 kts | 275° |
| 2026-05-04 23:53 | 41.12752 | 38.34352 | 39912 ft | 480 kts | 274° |
| 2026-05-04 23:54 | 41.13469 | 38.25582 | 39914 ft | 480 kts | 274° |
| 2026-05-04 23:54 | 41.14194 | 38.16817 | 39914 ft | 480 kts | 274° |
| 2026-05-04 23:55 | 41.14906 | 38.08075 | 39913 ft | 481 kts | 275° |
| 2026-05-04 23:56 | 41.15963 | 37.94847 | 39926 ft | 481 kts | 274° |
| 2026-05-04 23:56 | 41.16663 | 37.86072 | 39925 ft | 481 kts | 275° |
| 2026-05-04 23:57 | 41.17419 | 37.77284 | 39917 ft | 481 kts | 275° |
| 2026-05-04 23:57 | 41.18163 | 37.68515 | 39922 ft | 481 kts | 275° |
| 2026-05-04 23:58 | 41.18832 | 37.59671 | 39919 ft | 480 kts | 273° |
| 2026-05-04 23:58 | 41.19379 | 37.50874 | 39922 ft | 481 kts | 275° |
| 2026-05-04 23:59 | 41.20037 | 37.42057 | 39918 ft | 482 kts | 275° |
| 2026-05-04 23:59 | 41.20686 | 37.33283 | 39916 ft | 482 kts | 274° |
| 2026-05-05 00:00 | 41.21328 | 37.24467 | 39915 ft | 481 kts | 274° |
| 2026-05-05 00:00 | 41.21998 | 37.15677 | 39921 ft | 481 kts | 275° |
| 2026-05-05 00:01 | 41.22696 | 37.06840 | 39921 ft | 481 kts | 275° |
| 2026-05-05 00:01 | 41.23375 | 36.98065 | 39924 ft | 482 kts | 275° |
| 2026-05-05 00:02 | 41.24049 | 36.89187 | 39922 ft | 482 kts | 275° |
| 2026-05-05 00:02 | 41.24709 | 36.80364 | 39922 ft | 482 kts | 275° |
| 2026-05-05 00:03 | 41.25362 | 36.71530 | 39926 ft | 483 kts | 275° |
| 2026-05-05 00:03 | 41.26025 | 36.62730 | 39922 ft | 482 kts | 276° |
| 2026-05-05 00:04 | 41.27164 | 36.53972 | 39931 ft | 483 kts | 282° |
| 2026-05-05 00:04 | 41.28988 | 36.45399 | 39932 ft | 484 kts | 288° |
| 2026-05-05 00:05 | 41.31145 | 36.36946 | 39928 ft | 483 kts | 288° |
| 2026-05-05 00:05 | 41.33304 | 36.28505 | 39929 ft | 484 kts | 288° |
| 2026-05-05 00:06 | 41.35446 | 36.20064 | 39929 ft | 484 kts | 288° |
| 2026-05-05 00:06 | 41.37466 | 36.12065 | 39920 ft | 484 kts | 288° |
| 2026-05-05 00:07 | 41.39621 | 36.03492 | 39924 ft | 484 kts | 288° |
| 2026-05-05 00:07 | 41.41751 | 35.94990 | 39929 ft | 484 kts | 288° |
| 2026-05-05 00:08 | 41.43870 | 35.86486 | 39927 ft | 486 kts | 288° |
| 2026-05-05 00:08 | 41.45981 | 35.77988 | 39933 ft | 486 kts | 288° |
| 2026-05-05 00:09 | 41.48099 | 35.69450 | 39920 ft | 487 kts | 288° |
| 2026-05-05 00:09 | 41.50207 | 35.60920 | 39928 ft | 488 kts | 288° |
| 2026-05-05 00:10 | 41.52315 | 35.52346 | 39919 ft | 487 kts | 288° |
| 2026-05-05 00:10 | 41.54405 | 35.43813 | 39914 ft | 487 kts | 288° |
| 2026-05-05 00:11 | 41.56498 | 35.35233 | 39914 ft | 486 kts | 289° |
| 2026-05-05 00:11 | 41.58566 | 35.26727 | 39913 ft | 486 kts | 288° |
| 2026-05-05 00:12 | 41.60641 | 35.18171 | 39915 ft | 486 kts | 288° |
| 2026-05-05 00:12 | 41.62712 | 35.09595 | 39922 ft | 486 kts | 288° |
| 2026-05-05 00:13 | 41.64772 | 35.01022 | 39922 ft | 486 kts | 288° |
| 2026-05-05 00:13 | 41.66821 | 34.92465 | 39922 ft | 486 kts | 288° |
| 2026-05-05 00:14 | 41.68867 | 34.83886 | 39928 ft | 486 kts | 288° |
| 2026-05-05 00:14 | 41.70906 | 34.75301 | 39926 ft | 487 kts | 288° |
| 2026-05-05 00:15 | 41.72953 | 34.66642 | 39918 ft | 487 kts | 288° |
| 2026-05-05 00:15 | 41.74991 | 34.58003 | 39917 ft | 488 kts | 288° |
| 2026-05-05 00:16 | 41.77026 | 34.49384 | 39923 ft | 488 kts | 288° |
| 2026-05-05 00:16 | 41.79044 | 34.40791 | 39917 ft | 488 kts | 288° |
| 2026-05-05 00:17 | 41.81068 | 34.32115 | 39914 ft | 487 kts | 288° |
| 2026-05-05 00:17 | 41.83064 | 34.23524 | 39919 ft | 487 kts | 288° |
| 2026-05-05 00:18 | 41.85068 | 34.14867 | 39921 ft | 487 kts | 288° |
| 2026-05-05 00:18 | 41.87061 | 34.06220 | 39937 ft | 488 kts | 288° |
| 2026-05-05 00:19 | 41.89046 | 33.97564 | 39936 ft | 488 kts | 288° |
| 2026-05-05 00:19 | 41.91025 | 33.88909 | 39928 ft | 488 kts | 288° |
| 2026-05-05 00:20 | 41.93006 | 33.80197 | 39933 ft | 487 kts | 288° |
| 2026-05-05 00:20 | 41.94963 | 33.71542 | 39952 ft | 487 kts | 288° |
| 2026-05-05 00:21 | 41.96712 | 33.62800 | 39931 ft | 487 kts | 286° |
| 2026-05-05 00:21 | 41.98398 | 33.54030 | 39956 ft | 487 kts | 286° |
| 2026-05-05 00:22 | 42.00071 | 33.45291 | 39941 ft | 487 kts | 286° |
| 2026-05-05 00:22 | 42.01752 | 33.36476 | 39964 ft | 487 kts | 286° |
| 2026-05-05 00:23 | 42.03426 | 33.27663 | 39974 ft | 488 kts | 285° |
| 2026-05-05 00:23 | 42.05080 | 33.18897 | 39956 ft | 486 kts | 286° |
| 2026-05-05 00:24 | 42.06738 | 33.10082 | 39957 ft | 487 kts | 286° |
| 2026-05-05 00:24 | 42.08460 | 33.01351 | 39967 ft | 486 kts | 288° |
| 2026-05-05 00:25 | 42.10277 | 32.92612 | 39956 ft | 487 kts | 288° |
| 2026-05-05 00:25 | 42.12064 | 32.83894 | 39946 ft | 487 kts | 287° |
| 2026-05-05 00:26 | 42.13837 | 32.75138 | 39946 ft | 486 kts | 287° |
| 2026-05-05 00:26 | 42.15604 | 32.66364 | 39947 ft | 486 kts | 287° |
| 2026-05-05 00:27 | 42.17360 | 32.57628 | 39944 ft | 485 kts | 287° |
| 2026-05-05 00:27 | 42.19116 | 32.48876 | 39951 ft | 486 kts | 287° |
| 2026-05-05 00:28 | 42.20859 | 32.40118 | 39939 ft | 486 kts | 288° |
| 2026-05-05 00:28 | 42.22596 | 32.31335 | 39945 ft | 485 kts | 287° |
| 2026-05-05 00:29 | 42.24320 | 32.22564 | 39939 ft | 486 kts | 287° |
| 2026-05-05 00:29 | 42.26035 | 32.13811 | 39940 ft | 485 kts | 287° |
| 2026-05-05 00:30 | 42.27763 | 32.04998 | 39938 ft | 485 kts | 287° |
| 2026-05-05 00:30 | 42.29482 | 31.96238 | 39950 ft | 485 kts | 287° |
| 2026-05-05 00:31 | 42.31191 | 31.87452 | 39951 ft | 485 kts | 287° |
| 2026-05-05 00:31 | 42.32883 | 31.78702 | 39952 ft | 484 kts | 287° |
| 2026-05-05 00:32 | 42.34573 | 31.69931 | 39957 ft | 484 kts | 287° |
| 2026-05-05 00:32 | 42.36246 | 31.61192 | 39959 ft | 484 kts | 287° |
| 2026-05-05 00:33 | 42.37920 | 31.52416 | 39967 ft | 483 kts | 288° |
| 2026-05-05 00:33 | 42.39580 | 31.43673 | 39959 ft | 483 kts | 287° |
| 2026-05-05 00:34 | 42.41243 | 31.34870 | 39946 ft | 482 kts | 287° |
| 2026-05-05 00:34 | 42.42887 | 31.26112 | 39975 ft | 483 kts | 287° |
| 2026-05-05 00:35 | 42.44526 | 31.17342 | 39962 ft | 482 kts | 287° |
| 2026-05-05 00:35 | 42.46150 | 31.08620 | 39967 ft | 481 kts | 287° |
| 2026-05-05 00:36 | 42.47783 | 30.99870 | 39970 ft | 481 kts | 287° |
| 2026-05-05 00:36 | 42.49401 | 30.91116 | 39985 ft | 481 kts | 287° |
| 2026-05-05 00:37 | 42.51012 | 30.82344 | 39976 ft | 480 kts | 287° |
| 2026-05-05 00:37 | 42.52607 | 30.73606 | 39975 ft | 480 kts | 287° |
| 2026-05-05 00:38 | 42.54194 | 30.64873 | 39984 ft | 479 kts | 287° |
| 2026-05-05 00:38 | 42.55775 | 30.56124 | 39962 ft | 479 kts | 287° |
| 2026-05-05 00:39 | 42.57338 | 30.47427 | 39989 ft | 478 kts | 287° |
| 2026-05-05 00:39 | 42.58935 | 30.38656 | 40008 ft | 477 kts | 289° |
| 2026-05-05 00:40 | 42.61075 | 30.30233 | 40001 ft | 473 kts | 296° |
| 2026-05-05 00:40 | 42.63959 | 30.22327 | 40005 ft | 468 kts | 304° |
| 2026-05-05 00:41 | 42.67543 | 30.15010 | 40013 ft | 464 kts | 310° |
| 2026-05-05 00:41 | 42.71455 | 30.08102 | 40021 ft | 463 kts | 311° |
| 2026-05-05 00:42 | 42.75396 | 30.01168 | 40023 ft | 463 kts | 311° |
| 2026-05-05 00:42 | 42.79304 | 29.94258 | 40012 ft | 463 kts | 311° |
| 2026-05-05 00:43 | 42.83226 | 29.87290 | 39988 ft | 463 kts | 311° |
| 2026-05-05 00:43 | 42.87123 | 29.80353 | 40016 ft | 462 kts | 311° |
| 2026-05-05 00:44 | 42.90988 | 29.73454 | 40022 ft | 462 kts | 311° |
| 2026-05-05 00:44 | 42.94891 | 29.66471 | 40009 ft | 462 kts | 311° |
| 2026-05-05 00:45 | 42.98767 | 29.59516 | 40012 ft | 462 kts | 311° |
| 2026-05-05 00:45 | 43.02630 | 29.52566 | 39996 ft | 461 kts | 311° |
| 2026-05-05 00:46 | 43.06473 | 29.45639 | 40006 ft | 461 kts | 311° |
| 2026-05-05 00:46 | 43.10339 | 29.38659 | 40021 ft | 461 kts | 311° |
| 2026-05-05 00:47 | 43.14210 | 29.31651 | 40016 ft | 462 kts | 310° |
| 2026-05-05 00:47 | 43.18069 | 29.24644 | 40006 ft | 463 kts | 310° |
| 2026-05-05 00:48 | 43.21923 | 29.17629 | 40015 ft | 462 kts | 310° |
| 2026-05-05 00:48 | 43.25765 | 29.10623 | 40021 ft | 462 kts | 310° |
| 2026-05-05 00:49 | 43.29607 | 29.03601 | 40019 ft | 462 kts | 310° |
| 2026-05-05 00:49 | 43.33438 | 28.96579 | 40015 ft | 462 kts | 310° |
| 2026-05-05 00:50 | 43.37300 | 28.89485 | 40017 ft | 463 kts | 310° |
| 2026-05-05 00:50 | 43.41143 | 28.82408 | 40014 ft | 463 kts | 310° |
| 2026-05-05 00:51 | 43.44957 | 28.75369 | 40017 ft | 463 kts | 310° |
| 2026-05-05 00:51 | 43.48790 | 28.68276 | 40016 ft | 463 kts | 309° |
| 2026-05-05 00:52 | 43.52640 | 28.61138 | 40019 ft | 464 kts | 309° |
| 2026-05-05 00:52 | 43.56473 | 28.54010 | 40028 ft | 465 kts | 309° |
| 2026-05-05 00:53 | 43.60291 | 28.46891 | 40030 ft | 465 kts | 309° |
| 2026-05-05 00:53 | 43.64143 | 28.39695 | 40031 ft | 466 kts | 309° |
| 2026-05-05 00:54 | 43.67955 | 28.32557 | 40020 ft | 465 kts | 308° |
| 2026-05-05 00:54 | 43.71773 | 28.25387 | 40028 ft | 465 kts | 308° |
| 2026-05-05 00:55 | 43.75602 | 28.18182 | 40030 ft | 466 kts | 308° |
| 2026-05-05 00:55 | 43.79411 | 28.10993 | 40039 ft | 467 kts | 308° |
| 2026-05-05 00:56 | 43.83253 | 28.03728 | 40034 ft | 468 kts | 308° |
| 2026-05-05 00:56 | 43.87085 | 27.96460 | 40023 ft | 469 kts | 308° |
| 2026-05-05 00:57 | 43.90920 | 27.89168 | 40038 ft | 468 kts | 308° |
| 2026-05-05 00:57 | 43.94730 | 27.81908 | 40017 ft | 467 kts | 308° |
| 2026-05-05 00:58 | 43.98536 | 27.74635 | 40033 ft | 467 kts | 308° |
| 2026-05-05 00:58 | 44.02315 | 27.67397 | 40029 ft | 467 kts | 308° |
| 2026-05-05 00:59 | 44.06118 | 27.60095 | 40028 ft | 467 kts | 308° |
| 2026-05-05 00:59 | 44.09908 | 27.52798 | 40038 ft | 466 kts | 308° |
| 2026-05-05 01:00 | 44.13669 | 27.45544 | 40036 ft | 466 kts | 308° |
| 2026-05-05 01:00 | 44.17456 | 27.38214 | 40033 ft | 466 kts | 308° |
| 2026-05-05 01:01 | 44.21229 | 27.30896 | 40040 ft | 465 kts | 307° |
| 2026-05-05 01:01 | 44.24994 | 27.23577 | 40044 ft | 465 kts | 307° |
| 2026-05-05 01:02 | 44.28724 | 27.16305 | 40042 ft | 465 kts | 307° |
| 2026-05-05 01:02 | 44.32477 | 27.08973 | 40043 ft | 465 kts | 307° |
| 2026-05-05 01:03 | 44.36229 | 27.01620 | 40041 ft | 465 kts | 307° |
| 2026-05-05 01:03 | 44.39978 | 26.94251 | 40045 ft | 465 kts | 307° |
| 2026-05-05 01:04 | 44.43687 | 26.86947 | 40044 ft | 465 kts | 307° |
| 2026-05-05 01:04 | 44.49282 | 26.75882 | 40045 ft | 465 kts | 307° |
| 2026-05-05 01:05 | 44.52998 | 26.68506 | 40046 ft | 464 kts | 307° |
| 2026-05-05 01:05 | 44.56709 | 26.61110 | 40044 ft | 464 kts | 306° |
| 2026-05-05 01:06 | 44.60064 | 26.53385 | 40047 ft | 466 kts | 300° |
| 2026-05-05 01:06 | 44.62891 | 26.45250 | 40045 ft | 466 kts | 297° |
| 2026-05-05 01:07 | 44.65618 | 26.36992 | 40046 ft | 466 kts | 297° |
| 2026-05-05 01:07 | 44.68322 | 26.28779 | 40047 ft | 467 kts | 297° |
| 2026-05-05 01:08 | 44.71039 | 26.20519 | 40049 ft | 467 kts | 297° |
| 2026-05-05 01:08 | 44.73535 | 26.12913 | 40041 ft | 466 kts | 297° |
| 2026-05-05 01:09 | 44.76385 | 26.04207 | 40043 ft | 465 kts | 297° |
| 2026-05-05 01:09 | 44.79096 | 25.95897 | 40046 ft | 464 kts | 297° |
| 2026-05-05 01:10 | 44.81772 | 25.87668 | 40044 ft | 465 kts | 297° |
| 2026-05-05 01:10 | 44.84459 | 25.79382 | 40037 ft | 466 kts | 297° |
| 2026-05-05 01:11 | 44.87136 | 25.71094 | 40043 ft | 466 kts | 297° |
| 2026-05-05 01:11 | 44.89806 | 25.62800 | 40043 ft | 465 kts | 297° |
| 2026-05-05 01:12 | 44.92462 | 25.54523 | 40042 ft | 464 kts | 297° |
| 2026-05-05 01:12 | 44.95108 | 25.46242 | 40045 ft | 464 kts | 297° |
| 2026-05-05 01:13 | 44.97736 | 25.37993 | 40047 ft | 464 kts | 297° |
| 2026-05-05 01:13 | 45.00465 | 25.29754 | 40050 ft | 464 kts | 298° |
| 2026-05-05 01:14 | 45.03327 | 25.21664 | 40053 ft | 464 kts | 298° |
| 2026-05-05 01:14 | 45.06215 | 25.13476 | 40058 ft | 464 kts | 298° |
| 2026-05-05 01:15 | 45.09075 | 25.05323 | 40062 ft | 464 kts | 298° |
| 2026-05-05 01:15 | 45.11919 | 24.97180 | 40062 ft | 464 kts | 298° |
| 2026-05-05 01:16 | 45.14753 | 24.89039 | 40066 ft | 464 kts | 298° |
| 2026-05-05 01:16 | 45.17600 | 24.80834 | 40075 ft | 464 kts | 298° |
| 2026-05-05 01:17 | 45.20425 | 24.72665 | 40086 ft | 463 kts | 298° |
| 2026-05-05 01:17 | 45.23260 | 24.64443 | 40095 ft | 463 kts | 298° |
| 2026-05-05 01:18 | 45.26054 | 24.56314 | 40087 ft | 463 kts | 298° |
| 2026-05-05 01:18 | 45.28881 | 24.48066 | 40092 ft | 463 kts | 298° |
| 2026-05-05 01:19 | 45.31673 | 24.39891 | 40099 ft | 462 kts | 298° |
| 2026-05-05 01:19 | 45.34462 | 24.31702 | 40099 ft | 462 kts | 297° |
| 2026-05-05 01:20 | 45.37243 | 24.23513 | 40101 ft | 462 kts | 297° |
| 2026-05-05 01:20 | 45.40037 | 24.15258 | 40109 ft | 462 kts | 297° |
| 2026-05-05 01:21 | 45.42813 | 24.07031 | 40120 ft | 462 kts | 297° |
| 2026-05-05 01:21 | 45.45583 | 23.98798 | 40128 ft | 462 kts | 297° |
| 2026-05-05 01:22 | 45.48330 | 23.90601 | 40124 ft | 461 kts | 297° |
| 2026-05-05 01:22 | 45.51089 | 23.82345 | 40132 ft | 461 kts | 297° |
| 2026-05-05 01:23 | 45.53834 | 23.74109 | 40136 ft | 461 kts | 297° |
| 2026-05-05 01:23 | 45.56575 | 23.65858 | 40134 ft | 461 kts | 297° |
| 2026-05-05 01:24 | 45.59295 | 23.57646 | 40134 ft | 461 kts | 297° |
| 2026-05-05 01:24 | 45.62038 | 23.49335 | 40133 ft | 462 kts | 297° |
| 2026-05-05 01:25 | 45.64757 | 23.41070 | 40129 ft | 462 kts | 297° |
| 2026-05-05 01:25 | 45.67469 | 23.32804 | 40120 ft | 461 kts | 297° |
| 2026-05-05 01:26 | 45.70180 | 23.24516 | 40103 ft | 461 kts | 297° |
| 2026-05-05 01:26 | 45.72891 | 23.16201 | 40088 ft | 460 kts | 297° |
| 2026-05-05 01:27 | 45.75578 | 23.07927 | 40070 ft | 461 kts | 297° |
| 2026-05-05 01:27 | 45.78266 | 22.99629 | 40081 ft | 461 kts | 297° |
| 2026-05-05 01:28 | 45.80943 | 22.91334 | 40088 ft | 461 kts | 297° |
| 2026-05-05 01:28 | 45.83626 | 22.83001 | 40111 ft | 460 kts | 297° |
| 2026-05-05 01:29 | 45.86270 | 22.74755 | 40115 ft | 458 kts | 297° |
| 2026-05-05 01:29 | 45.88915 | 22.66485 | 40102 ft | 457 kts | 297° |
| 2026-05-05 01:30 | 45.91552 | 22.58208 | 40094 ft | 457 kts | 297° |
| 2026-05-05 01:30 | 45.94192 | 22.49900 | 40096 ft | 457 kts | 297° |
| 2026-05-05 01:31 | 45.96801 | 22.41660 | 40084 ft | 457 kts | 297° |
| 2026-05-05 01:31 | 45.99418 | 22.33367 | 40081 ft | 456 kts | 296° |
| 2026-05-05 01:32 | 46.02034 | 22.25055 | 40069 ft | 455 kts | 296° |
| 2026-05-05 01:32 | 46.04625 | 22.16796 | 40071 ft | 455 kts | 296° |
| 2026-05-05 01:33 | 46.07216 | 22.08508 | 40068 ft | 454 kts | 296° |
| 2026-05-05 01:33 | 46.09748 | 22.00380 | 40068 ft | 454 kts | 296° |
| 2026-05-05 01:34 | 46.12319 | 21.92104 | 40079 ft | 454 kts | 296° |
| 2026-05-05 01:34 | 46.14877 | 21.83842 | 40072 ft | 453 kts | 296° |
| 2026-05-05 01:35 | 46.17445 | 21.75522 | 40066 ft | 453 kts | 296° |
| 2026-05-05 01:35 | 46.19975 | 21.67295 | 40055 ft | 453 kts | 296° |
| 2026-05-05 01:36 | 46.22530 | 21.58960 | 40053 ft | 453 kts | 296° |
| 2026-05-05 01:36 | 46.25057 | 21.50690 | 40052 ft | 453 kts | 296° |
| 2026-05-05 01:37 | 46.27588 | 21.42376 | 40066 ft | 454 kts | 295° |